• Join FlightAware (Why Join?)
  • Login
  • US Flag 
08:01AM EDT


 

Airport Tracker/Info


-or-


 

Live Flight TrackerFlight Track Log ✈ SWA1535 ✈ 30-Apr-2013 ✈ KMDW - KPVD

Flight Track Log - Related Links

Times and Time Zones

All times are in EDT time to prevent confusion due to time zone crossing. See the SWA1535 flight status page for this flight to view local times or setup timezone preferences in your user account.

Time Position Orientation Groundspeed Altitude Reporting Facility
EDT Latitude Longitude Course Direction KTS MPH feet Rate Location/Type
10:19AM 41.8333 -87.7500 37° Northeast 254 292 3,900  Level Chicago TRACON
10:21AM 41.8186 -87.5856 97° East 267 307 4,700 1,080 Climbing Chicago Center
10:22AM 41.8072 -87.4739 98° East 287 330 7,000 2,700 Climbing Chicago Center
10:23AM 41.7956 -87.3631 98° East 299 344 10,300 3,240 Climbing Chicago Center
10:24AM 41.7822 -87.2461 99° East 312 359 13,800 3,480 Climbing Chicago Center
10:25AM 41.7667 -87.0961 98° East 333 383 17,500 3,420 Climbing Chicago Center
10:26AM 41.7636 -86.9631 92° East 356 410 20,900 2,460 Climbing Chicago Center
10:27AM 41.7653 -86.8247 89° East 369 425 22,600 1,500 Climbing Chicago Center
10:28AM 41.7672 -86.6856 89° East 375 432 24,000 2,220 Climbing Chicago Center
10:29AM 41.7664 -86.5294 90° East 409 471 27,200 2,700 Climbing Chicago Center
10:30AM 41.7697 -86.3844 88° East 396 456 29,700 2,040 Climbing Chicago Center
10:31AM 41.7750 -86.2072 88° East 396 456 31,500 1,740 Climbing Chicago Center
10:32AM 41.7767 -86.0519 89° East 412 474 33,300 1,560 Climbing Chicago Center
10:33AM 41.7800 -85.8953 88° East 420 483 34,800 1,260 Climbing Chicago Center
10:34AM 41.7828 -85.7358 89° East 425 489 36,000 1,020 Climbing Chicago Center
10:35AM 41.7847 -85.5711 89° East 437 503 37,000 1,140 Climbing Chicago Center
10:36AM 41.7844 -85.4019 90° East 443 510 38,400 960 Climbing Chicago Center
10:37AM 41.7886 -85.2361 88° East 437 503 39,000 300 Climbing Chicago Center
10:38AM 41.7936 -85.1014 87° East 440 506 39,000  Level Cleveland Center
10:39AM 41.8019 -84.9431 86° East 435 501 39,000  Level Cleveland Center
10:40AM 41.8164 -84.7794 83° East 435 501 39,000  Level Cleveland Center
10:41AM 41.8306 -84.6186 83° East 440 506 39,000  Level Cleveland Center
10:42AM 41.8444 -84.4550 83° East 440 506 39,000  Level Cleveland Center
10:43AM 41.8603 -84.2944 82° East 440 506 39,000  Level Cleveland Center
10:44AM 41.8700 -84.1164 86° East 440 506 39,000  Level Cleveland Center
10:45AM 41.8831 -83.9581 84° East 440 506 39,000  Level Cleveland Center
10:46AM 41.8983 -83.7914 83° East 440 506 39,000  Level Cleveland Center
10:47AM 41.9089 -83.6328 85° East 440 506 39,000  Level Cleveland Center
10:48AM 41.9258 -83.4689 82° East 440 506 39,000  Level Cleveland Center
10:49AM 41.9358 -83.3103 85° East 435 501 39,000  Level Cleveland Center
10:50AM 41.9481 -83.1461 84° East 430 495 39,000  Level Cleveland Center
10:51AM 41.9619 -82.9847 83° East 430 495 39,000  Level Cleveland Center
10:52AM 41.9711 -82.8369 85° East 430 495 39,000  Level Cleveland Center
10:53AM 41.9847 -82.6756 83° East 435 501 39,000  Level Cleveland Center
10:54AM 41.9978 -82.5139 84° East 435 501 39,000  Level Cleveland Center
10:55AM 42.0089 -82.3492 85° East 440 506 39,000  Level Cleveland Center
10:56AM 42.0197 -82.1875 85° East 440 506 39,000  Level Cleveland Center
10:57AM 42.0325 -82.0089 84° East 440 506 39,000  Level Cleveland Center
10:58AM 42.0428 -81.8442 85° East 445 512 39,000  Level Cleveland Center
10:59AM 42.0528 -81.6794 85° East 445 512 39,000  Level Cleveland Center
11:00AM 42.0647 -81.5089 85° East 445 512 39,000  Level Cleveland Center
11:01AM 42.0764 -81.3383 85° East 445 512 39,000  Level Cleveland Center
11:02AM 42.0856 -81.1706 86° East 445 512 39,000  Level Cleveland Center
11:03AM 42.0947 -81.0197 85° East 445 512 39,000  Level Cleveland Center
11:04AM 42.1078 -80.8492 84° East 451 519 39,000  Level Cleveland Center
11:05AM 42.1142 -80.6728 87° East 460 529 39,000  Level Cleveland Center
11:06AM 42.1247 -80.5019 85° East 460 529 39,000  Level Cleveland Center
11:07AM 42.1306 -80.3339 87° East 455 524 39,000  Level Cleveland Center
11:08AM 42.1406 -80.1519 86° East 455 524 39,000  Level Cleveland Center
11:09AM 42.1503 -79.9811 86° East 455 524 39,000  Level Cleveland Center
11:10AM 42.1575 -79.8297 86° East 450 518 39,000  Level Cleveland Center
11:11AM 42.1647 -79.6644 87° East 444 511 39,000  Level Cleveland Center
11:12AM 42.1736 -79.4989 86° East 444 511 39,000  Level Cleveland Center
11:13AM 42.1803 -79.3333 87° East 444 511 39,000  Level Cleveland Center
11:14AM 42.1867 -79.1653 87° East 444 511 39,000  Level Cleveland Center
11:15AM 42.2056 -79.0022 81° East 444 511 39,000  Level Cleveland Center
11:16AM 42.2278 -78.8194 81° East 444 511 39,000  Level Cleveland Center
11:17AM 42.2481 -78.6533 81° East 444 511 39,000  Level Cleveland Center
11:18AM 42.2703 -78.4869 80° East 449 517 39,000  Level Cleveland Center
11:19AM 42.2900 -78.3208 81° East 449 517 39,000  Level Cleveland Center
11:20AM 42.3117 -78.1517 80° East 449 517 39,000  Level Cleveland Center
11:21AM 42.3308 -77.9850 81° East 449 517 39,000  Level Cleveland Center
11:22AM 42.3500 -77.8186 81° East 449 517 39,000  Level Cleveland Center
11:23AM 42.3689 -77.6519 81° East 449 517 39,000  Level Cleveland Center
11:24AM 42.3894 -77.4878 80° East 449 517 39,000  Level Cleveland Center
11:25AM 42.4058 -77.3211 82° East 449 517 39,000  Level Cleveland Center
11:26AM 42.4244 -77.1739 80° East 444 511 39,000  Level Cleveland Center
11:28AM 42.4581 -76.8647 82° East 442 509 39,000  Level Boston Center
11:29AM 42.4747 -76.6969 82° East 442 509 39,000  Level Boston Center
11:30AM 42.4933 -76.5319 81° East 442 509 39,000  Level Boston Center
11:31AM 42.4889 -76.3628 92° East 442 509 39,000  Level Boston Center
11:32AM 42.4803 -76.1903 94° East 442 509 39,000  Level Boston Center
11:33AM 42.4711 -76.0236 94° East 442 509 39,000  Level Boston Center
11:34AM 42.4581 -75.8342 95° East 452 520 39,000  Level Boston Center
11:35AM 42.4483 -75.6647 94° East 452 520 39,000  Level Boston Center
11:36AM 42.4383 -75.4983 95° East 446 513 39,000  Level Boston Center
11:37AM 42.4281 -75.3347 95° East 446 513 39,000 -360 Level Boston Center
11:38AM 42.4178 -75.1653 95° East 446 513 38,300 -1,140 Descending Boston Center
11:39AM 42.4069 -74.9961 95° East 446 513 36,800 -2,040 Descending Boston Center
11:40AM 42.3961 -74.8269 95° East 446 513 34,300 -2,760 Descending Boston Center
11:41AM 42.3831 -74.6550 96° East 446 513 31,300 -2,700 Descending Boston Center
11:42AM 42.3736 -74.4917 94° East 446 513 29,000 -1,200 Descending Boston Center
11:43AM 42.3617 -74.3283 96° East 441 507 29,000 -180 Level Boston Center
11:44AM 42.3497 -74.1622 96° East 441 507 28,700 -660 Descending Boston Center
11:45AM 42.3375 -73.9989 96° East 441 507 27,700 -1,020 Descending Boston Center
11:46AM 42.3250 -73.8386 96° East 441 507 26,700 -1,020 Descending Boston Center
11:47AM 42.3164 -73.6839 94° East 447 514 25,700 -1,080 Descending Boston Center
11:48AM 42.3033 -73.5292 96° East 441 507 24,600 -1,080 Descending Boston Center
11:49AM 42.2944 -73.3747 94° East 423 487 23,600 -1,020 Descending Boston Center
11:50AM 42.2767 -73.2397 100° East 394 453 22,600 -1,020 Descending Boston Center
11:51AM 42.2400 -73.1019 110° East 387 445 21,600 -960 Descending Boston Center
11:52AM 42.1614 -72.9947 135° Southeast 378 435 20,700 -960 Descending Boston Center
11:53AM 42.0889 -72.8933 134° Southeast 383 441 19,700 -900 Descending Boston Center
11:54AM 42.0142 -72.7922 135° Southeast 383 441 19,000 -360 Descending Boston Center
11:55AM 41.9417 -72.6942 135° Southeast 378 435 19,000 -600 Level Boston Center
11:56AM 41.8750 -72.5683 125° Southeast 378 435 17,800 -1,380 Descending Boston Center
11:57AM 41.8211 -72.4736 127° Southeast 365 420 16,300 -1,860 Descending Boston Center
11:58AM 41.7586 -72.3594 126° Southeast 358 412 14,200 -1,980 Descending Boston Center
11:59AM 41.7083 -72.2789 130° Southeast 336 387 12,700 -1,560 Descending Boston Center
12:00PM 41.6561 -72.1761 124° Southeast 337 388 11,100 -840 Descending Boston Center
12:01PM 41.6078 -72.0931 128° Southeast 307 353 11,000 -420 Descending Boston Center
12:02PM 41.5597 -72.0072 127° Southeast 291 335 10,300 -1,260 Descending Boston Center
12:03PM 41.5281 -71.9217 116° Southeast 283 326 8,600 -1,800 Descending Boston Center
12:04PM 41.4919 -71.7778 108° East 270 311 6,200 -1,740 Descending Boston Center
12:05PM 41.5183 -71.6944 67° East 261 300 4,500 -1,740 Descending Boston Center
12:06PM 41.5472 -71.6164 64° Northeast 252 290 2,900 -1,260 Descending Boston Center
12:07PM 41.5903 -71.5492 49° Northeast 242 278 2,100 -540 Descending Boston Center
12:08PM 41.6358 -71.5042 36° Northeast 209 241 1,900 -540 Descending Boston Center
12:09PM 41.6711 -71.4731 33° Northeast 163 188 1,100 -420 Descending Boston Center
12:10PM 41.6833 -71.4561 46° Northeast 163 188 1,100  Level Boston Center
12:11PM 41.6833 -71.4561 346° North 163 188 1,100  Level Boston Center